KAMA

Rick Husband Amarillo International Airport

Amarillo, Texas, USA
METAR KAMA 190253Z 19011KT 10SM CLR 02/M12 A3007 RMK AO2 SLP199 T00221117 58003
Observed Flight Rules
Jan-19 @ 02:53 UTC (47 minutes ago) Visual Flight Rules
Wind Visibility Clouds
190° at 11 knots 10 miles
  • Clear skies
Temperatures Readings
Current 2°C / 36°F
Dewpoint -12°C / 10°F
Humidity 35%
Altimeter 30.07" Hg
Pressure 1019.9 hPa
Elevation 1093
METAR KAMA 190253Z 19011KT 10SM CLR 02/M12 A3007 RMK AO2 SLP199 T00221117 58003
Observed Flight Rules
Jan-19 @ 02:53 UTC
(47 minutes ago)
VFR
Wind Visibility
190° at 11 knots 10 miles
Clouds
  • Clear skies
Temperature Dewpoint
2°C / 36°F -12°C / 10°F
Humidity Altimeter Pressure
35% 30.07" Hg 1019.9 hPa